sensor_id;sensor_type;location;lat;lon;timestamp;pressure;altitude;pressure_sealevel;temperature
29701;BMP280;57917;51.380;-0.176;2023-04-25T00:01:14;101169.56;;;6.84
29701;BMP280;57917;51.380;-0.176;2023-04-25T00:07:01;101167.63;;;6.51
29701;BMP280;57917;51.380;-0.176;2023-04-25T00:12:48;101143.94;;;6.51
29701;BMP280;57917;51.380;-0.176;2023-04-25T00:18:35;101142.69;;;6.42
29701;BMP280;57917;51.380;-0.176;2023-04-25T00:24:22;101149.69;;;6.25
29701;BMP280;57917;51.380;-0.176;2023-04-25T00:30:12;101160.31;;;6.30
29701;BMP280;57917;51.380;-0.176;2023-04-25T00:35:59;101171.22;;;6.10
29701;BMP280;57917;51.380;-0.176;2023-04-25T00:41:46;101181.63;;;5.94
29701;BMP280;57917;51.380;-0.176;2023-04-25T00:47:35;101181.25;;;5.90
29701;BMP280;57917;51.380;-0.176;2023-04-25T00:53:23;101180.88;;;5.98
29701;BMP280;57917;51.380;-0.176;2023-04-25T00:59:11;101168.56;;;5.99
29701;BMP280;57917;51.380;-0.176;2023-04-25T01:04:58;101180.00;;;6.16
29701;BMP280;57917;51.380;-0.176;2023-04-25T01:10:45;101196.34;;;6.18
29701;BMP280;57917;51.380;-0.176;2023-04-25T01:16:32;101184.91;;;5.89
29701;BMP280;57917;51.380;-0.176;2023-04-25T01:22:19;101168.47;;;5.82
29701;BMP280;57917;51.380;-0.176;2023-04-25T01:28:09;101179.63;;;5.78
29701;BMP280;57917;51.380;-0.176;2023-04-25T01:33:56;101180.66;;;5.65
29701;BMP280;57917;51.380;-0.176;2023-04-25T01:39:44;101189.56;;;5.64
29701;BMP280;57917;51.380;-0.176;2023-04-25T01:45:31;101194.59;;;5.89
29701;BMP280;57917;51.380;-0.176;2023-04-25T01:51:18;101195.41;;;5.66
29701;BMP280;57917;51.380;-0.176;2023-04-25T01:57:05;101199.59;;;5.67
29701;BMP280;57917;51.380;-0.176;2023-04-25T02:02:58;101210.91;;;5.38
29701;BMP280;57917;51.380;-0.176;2023-04-25T02:08:49;101209.66;;;4.99
29701;BMP280;57917;51.380;-0.176;2023-04-25T02:14:37;101226.88;;;5.07
29701;BMP280;57917;51.380;-0.176;2023-04-25T02:20:45;101235.06;;;4.99
29701;BMP280;57917;51.380;-0.176;2023-04-25T02:26:32;101217.13;;;4.78
29701;BMP280;57917;51.380;-0.176;2023-04-25T02:32:18;101220.50;;;4.85
29701;BMP280;57917;51.380;-0.176;2023-04-25T02:38:06;101214.88;;;4.63
29701;BMP280;57917;51.380;-0.176;2023-04-25T02:43:53;101218.53;;;4.44
29701;BMP280;57917;51.380;-0.176;2023-04-25T02:49:39;101240.22;;;4.33
29701;BMP280;57917;51.380;-0.176;2023-04-25T02:55:27;101235.81;;;4.27
29701;BMP280;57917;51.380;-0.176;2023-04-25T03:01:14;101242.50;;;4.23
29701;BMP280;57917;51.380;-0.176;2023-04-25T03:07:01;101246.50;;;4.25
29701;BMP280;57917;51.380;-0.176;2023-04-25T03:12:49;101240.03;;;4.28
29701;BMP280;57917;51.380;-0.176;2023-04-25T03:18:36;101238.59;;;4.32
29701;BMP280;57917;51.380;-0.176;2023-04-25T03:24:23;101234.69;;;4.16
29701;BMP280;57917;51.380;-0.176;2023-04-25T03:30:10;101245.44;;;4.08
29701;BMP280;57917;51.380;-0.176;2023-04-25T03:35:59;101246.97;;;4.16
29701;BMP280;57917;51.380;-0.176;2023-04-25T03:41:47;101255.38;;;4.24
29701;BMP280;57917;51.380;-0.176;2023-04-25T03:47:36;101257.97;;;4.31
29701;BMP280;57917;51.380;-0.176;2023-04-25T03:53:24;101252.16;;;3.98
29701;BMP280;57917;51.380;-0.176;2023-04-25T03:59:36;101270.84;;;3.70
29701;BMP280;57917;51.380;-0.176;2023-04-25T04:05:23;101267.75;;;3.86
29701;BMP280;57917;51.380;-0.176;2023-04-25T04:11:14;101268.00;;;3.72
29701;BMP280;57917;51.380;-0.176;2023-04-25T04:17:01;101283.72;;;3.72
29701;BMP280;57917;51.380;-0.176;2023-04-25T04:22:48;101289.91;;;3.84
29701;BMP280;57917;51.380;-0.176;2023-04-25T04:28:36;101299.84;;;3.75
29701;BMP280;57917;51.380;-0.176;2023-04-25T04:34:45;101309.50;;;3.75
29701;BMP280;57917;51.380;-0.176;2023-04-25T04:40:36;101325.28;;;3.62
29701;BMP280;57917;51.380;-0.176;2023-04-25T04:46:32;101340.16;;;3.68
29701;BMP280;57917;51.380;-0.176;2023-04-25T04:52:42;101343.13;;;3.78
29701;BMP280;57917;51.380;-0.176;2023-04-25T04:58:48;101330.41;;;3.88
29701;BMP280;57917;51.380;-0.176;2023-04-25T05:05:01;101340.03;;;3.94
29701;BMP280;57917;51.380;-0.176;2023-04-25T05:11:01;101353.81;;;4.45
29701;BMP280;57917;51.380;-0.176;2023-04-25T05:17:10;101369.81;;;4.62
29701;BMP280;57917;51.380;-0.176;2023-04-25T05:23:17;101386.56;;;4.85
29701;BMP280;57917;51.380;-0.176;2023-04-25T05:29:14;101392.22;;;6.09
29701;BMP280;57917;51.380;-0.176;2023-04-25T05:35:31;101404.97;;;7.27
29701;BMP280;57917;51.380;-0.176;2023-04-25T05:41:19;101396.94;;;7.45
29701;BMP280;57917;51.380;-0.176;2023-04-25T05:47:42;101383.41;;;7.53
29701;BMP280;57917;51.380;-0.176;2023-04-25T05:53:39;101395.97;;;7.00
29701;BMP280;57917;51.380;-0.176;2023-04-25T05:59:28;101410.84;;;7.29
29701;BMP280;57917;51.380;-0.176;2023-04-25T06:05:15;101403.44;;;7.54
29701;BMP280;57917;51.380;-0.176;2023-04-25T06:11:04;101399.19;;;8.10
29701;BMP280;57917;51.380;-0.176;2023-04-25T06:16:51;101435.56;;;8.91
29701;BMP280;57917;51.380;-0.176;2023-04-25T06:22:38;101418.25;;;9.21
29701;BMP280;57917;51.380;-0.176;2023-04-25T06:28:28;101410.09;;;9.01
29701;BMP280;57917;51.380;-0.176;2023-04-25T06:34:16;101421.44;;;8.47
29701;BMP280;57917;51.380;-0.176;2023-04-25T06:40:05;101419.00;;;7.84
29701;BMP280;57917;51.380;-0.176;2023-04-25T06:45:52;101431.97;;;7.86
29701;BMP280;57917;51.380;-0.176;2023-04-25T06:51:41;101422.06;;;7.93
29701;BMP280;57917;51.380;-0.176;2023-04-25T06:57:28;101422.00;;;8.49
29701;BMP280;57917;51.380;-0.176;2023-04-25T07:03:29;101414.97;;;9.09
29701;BMP280;57917;51.380;-0.176;2023-04-25T07:09:22;101421.00;;;9.26
29701;BMP280;57917;51.380;-0.176;2023-04-25T07:15:10;101439.34;;;8.78
29701;BMP280;57917;51.380;-0.176;2023-04-25T07:21:01;101449.47;;;8.36
29701;BMP280;57917;51.380;-0.176;2023-04-25T07:26:50;101440.78;;;9.45
29701;BMP280;57917;51.380;-0.176;2023-04-25T07:32:57;101448.44;;;8.87
29701;BMP280;57917;51.380;-0.176;2023-04-25T07:38:44;101443.56;;;8.96
29701;BMP280;57917;51.380;-0.176;2023-04-25T07:44:32;101445.78;;;9.25
29701;BMP280;57917;51.380;-0.176;2023-04-25T07:50:29;101456.78;;;10.09
29701;BMP280;57917;51.380;-0.176;2023-04-25T07:56:19;101462.13;;;10.14
29701;BMP280;57917;51.380;-0.176;2023-04-25T08:02:15;101476.25;;;10.61
29701;BMP280;57917;51.380;-0.176;2023-04-25T08:08:06;101475.56;;;10.70
29701;BMP280;57917;51.380;-0.176;2023-04-25T08:13:54;101490.44;;;10.81
29701;BMP280;57917;51.380;-0.176;2023-04-25T08:19:43;101484.56;;;10.74
29701;BMP280;57917;51.380;-0.176;2023-04-25T08:25:43;101484.44;;;10.96
29701;BMP280;57917;51.380;-0.176;2023-04-25T08:31:35;101478.34;;;11.47
29701;BMP280;57917;51.380;-0.176;2023-04-25T08:37:34;101483.81;;;10.79
29701;BMP280;57917;51.380;-0.176;2023-04-25T08:43:35;101502.03;;;11.17
29701;BMP280;57917;51.380;-0.176;2023-04-25T08:49:39;101487.22;;;11.16
29701;BMP280;57917;51.380;-0.176;2023-04-25T08:55:31;101499.16;;;11.95
29701;BMP280;57917;51.380;-0.176;2023-04-25T09:01:22;101494.31;;;11.72
29701;BMP280;57917;51.380;-0.176;2023-04-25T09:07:13;101489.88;;;11.93
29701;BMP280;57917;51.380;-0.176;2023-04-25T09:13:08;101476.97;;;11.35
29701;BMP280;57917;51.380;-0.176;2023-04-25T09:19:45;101490.94;;;12.17
29701;BMP280;57917;51.380;-0.176;2023-04-25T09:25:44;101493.31;;;12.68
29701;BMP280;57917;51.380;-0.176;2023-04-25T09:31:33;101470.50;;;12.17
29701;BMP280;57917;51.380;-0.176;2023-04-25T09:37:25;101474.75;;;12.43
29701;BMP280;57917;51.380;-0.176;2023-04-25T09:43:27;101475.78;;;11.82
29701;BMP280;57917;51.380;-0.176;2023-04-25T09:49:15;101471.00;;;11.84
29701;BMP280;57917;51.380;-0.176;2023-04-25T09:55:11;101478.47;;;12.07
29701;BMP280;57917;51.380;-0.176;2023-04-25T10:01:05;101477.38;;;12.08
29701;BMP280;57917;51.380;-0.176;2023-04-25T10:07:06;101469.31;;;11.48
29701;BMP280;57917;51.380;-0.176;2023-04-25T10:12:56;101475.50;;;11.94
29701;BMP280;57917;51.380;-0.176;2023-04-25T10:18:49;101489.06;;;12.37
29701;BMP280;57917;51.380;-0.176;2023-04-25T10:24:58;101490.03;;;11.56
29701;BMP280;57917;51.380;-0.176;2023-04-25T10:37:20;101488.44;;;12.96
29701;BMP280;57917;51.380;-0.176;2023-04-25T10:49:37;101484.81;;;13.89
29701;BMP280;57917;51.380;-0.176;2023-04-25T10:55:25;101482.28;;;13.10
29701;BMP280;57917;51.380;-0.176;2023-04-25T11:01:15;101473.41;;;12.16
29701;BMP280;57917;51.380;-0.176;2023-04-25T11:07:43;101475.25;;;12.15
29701;BMP280;57917;51.380;-0.176;2023-04-25T11:13:55;101467.03;;;11.15
29701;BMP280;57917;51.380;-0.176;2023-04-25T11:20:03;101466.25;;;11.14
29701;BMP280;57917;51.380;-0.176;2023-04-25T11:26:07;101464.63;;;11.80
29701;BMP280;57917;51.380;-0.176;2023-04-25T11:31:58;101444.19;;;12.61
29701;BMP280;57917;51.380;-0.176;2023-04-25T11:37:56;101448.31;;;13.51
29701;BMP280;57917;51.380;-0.176;2023-04-25T11:44:32;101466.34;;;13.64
29701;BMP280;57917;51.380;-0.176;2023-04-25T11:50:45;101469.91;;;13.44
29701;BMP280;57917;51.380;-0.176;2023-04-25T11:57:11;101461.56;;;13.02
29701;BMP280;57917;51.380;-0.176;2023-04-25T12:03:50;101465.66;;;12.64
29701;BMP280;57917;51.380;-0.176;2023-04-25T12:10:25;101459.31;;;12.65
29701;BMP280;57917;51.380;-0.176;2023-04-25T12:16:17;101459.59;;;13.33
29701;BMP280;57917;51.380;-0.176;2023-04-25T12:22:21;101477.72;;;13.26
29701;BMP280;57917;51.380;-0.176;2023-04-25T12:28:17;101469.69;;;12.37
29701;BMP280;57917;51.380;-0.176;2023-04-25T12:34:12;101472.06;;;11.93
29701;BMP280;57917;51.380;-0.176;2023-04-25T12:40:00;101480.56;;;12.10
29701;BMP280;57917;51.380;-0.176;2023-04-25T12:45:55;101469.97;;;12.45
29701;BMP280;57917;51.380;-0.176;2023-04-25T12:51:55;101478.94;;;12.64
29701;BMP280;57917;51.380;-0.176;2023-04-25T12:57:47;101487.56;;;13.69
29701;BMP280;57917;51.380;-0.176;2023-04-25T13:03:41;101463.03;;;14.10
29701;BMP280;57917;51.380;-0.176;2023-04-25T13:09:29;101474.16;;;13.40
29701;BMP280;57917;51.380;-0.176;2023-04-25T13:15:16;101481.09;;;12.72
29701;BMP280;57917;51.380;-0.176;2023-04-25T13:21:03;101492.50;;;12.63
29701;BMP280;57917;51.380;-0.176;2023-04-25T13:27:11;101489.56;;;11.94
29701;BMP280;57917;51.380;-0.176;2023-04-25T13:33:18;101502.88;;;11.99
29701;BMP280;57917;51.380;-0.176;2023-04-25T13:39:07;101502.09;;;12.14
29701;BMP280;57917;51.380;-0.176;2023-04-25T13:44:54;101494.09;;;12.64
29701;BMP280;57917;51.380;-0.176;2023-04-25T13:50:44;101487.31;;;13.17
29701;BMP280;57917;51.380;-0.176;2023-04-25T13:56:38;101487.88;;;13.62
29701;BMP280;57917;51.380;-0.176;2023-04-25T14:02:27;101481.94;;;13.32
29701;BMP280;57917;51.380;-0.176;2023-04-25T14:08:31;101492.31;;;13.28
29701;BMP280;57917;51.380;-0.176;2023-04-25T14:14:20;101491.38;;;12.94
29701;BMP280;57917;51.380;-0.176;2023-04-25T14:20:08;101488.63;;;13.24
29701;BMP280;57917;51.380;-0.176;2023-04-25T14:25:57;101486.78;;;13.15
29701;BMP280;57917;51.380;-0.176;2023-04-25T14:31:44;101494.59;;;12.76
29701;BMP280;57917;51.380;-0.176;2023-04-25T14:37:34;101500.00;;;12.41
29701;BMP280;57917;51.380;-0.176;2023-04-25T14:43:21;101492.81;;;12.51
29701;BMP280;57917;51.380;-0.176;2023-04-25T14:49:17;101499.19;;;12.45
29701;BMP280;57917;51.380;-0.176;2023-04-25T14:55:05;101497.53;;;12.64
29701;BMP280;57917;51.380;-0.176;2023-04-25T15:00:52;101500.22;;;12.59
29701;BMP280;57917;51.380;-0.176;2023-04-25T15:06:42;101478.97;;;12.59
29701;BMP280;57917;51.380;-0.176;2023-04-25T15:12:29;101490.09;;;12.87
29701;BMP280;57917;51.380;-0.176;2023-04-25T15:18:21;101480.56;;;12.50
29701;BMP280;57917;51.380;-0.176;2023-04-25T15:24:11;101481.94;;;12.28
29701;BMP280;57917;51.380;-0.176;2023-04-25T15:30:14;101477.38;;;12.08
29701;BMP280;57917;51.380;-0.176;2023-04-25T15:36:05;101470.22;;;12.19
29701;BMP280;57917;51.380;-0.176;2023-04-25T15:41:54;101473.13;;;12.42
29701;BMP280;57917;51.380;-0.176;2023-04-25T15:47:44;101468.81;;;12.87
29701;BMP280;57917;51.380;-0.176;2023-04-25T15:53:35;101455.16;;;13.13
29701;BMP280;57917;51.380;-0.176;2023-04-25T15:59:23;101464.53;;;13.01
29701;BMP280;57917;51.380;-0.176;2023-04-25T16:05:19;101472.53;;;12.86
29701;BMP280;57917;51.380;-0.176;2023-04-25T16:11:10;101466.59;;;13.14
29701;BMP280;57917;51.380;-0.176;2023-04-25T16:17:05;101457.22;;;12.32
29701;BMP280;57917;51.380;-0.176;2023-04-25T16:22:56;101470.75;;;11.91
29701;BMP280;57917;51.380;-0.176;2023-04-25T16:28:46;101465.16;;;11.87
29701;BMP280;57917;51.380;-0.176;2023-04-25T16:34:36;101466.75;;;12.58
29701;BMP280;57917;51.380;-0.176;2023-04-25T16:40:34;101450.34;;;12.26
29701;BMP280;57917;51.380;-0.176;2023-04-25T16:46:25;101460.66;;;11.98
29701;BMP280;57917;51.380;-0.176;2023-04-25T16:52:15;101459.88;;;11.97
29701;BMP280;57917;51.380;-0.176;2023-04-25T16:58:04;101449.78;;;12.04
29701;BMP280;57917;51.380;-0.176;2023-04-25T17:03:59;101439.97;;;11.95
29701;BMP280;57917;51.380;-0.176;2023-04-25T17:09:47;101447.09;;;11.69
29701;BMP280;57917;51.380;-0.176;2023-04-25T17:15:40;101448.72;;;12.25
29701;BMP280;57917;51.380;-0.176;2023-04-25T17:21:30;101447.09;;;11.79
29701;BMP280;57917;51.380;-0.176;2023-04-25T17:27:20;101445.78;;;11.82
29701;BMP280;57917;51.380;-0.176;2023-04-25T17:33:17;101448.69;;;11.75
29701;BMP280;57917;51.380;-0.176;2023-04-25T17:39:09;101443.94;;;11.77
29701;BMP280;57917;51.380;-0.176;2023-04-25T17:44:57;101443.91;;;11.62
29701;BMP280;57917;51.380;-0.176;2023-04-25T17:50:44;101454.00;;;11.70
29701;BMP280;57917;51.380;-0.176;2023-04-25T17:56:35;101449.94;;;11.43
29701;BMP280;57917;51.380;-0.176;2023-04-25T18:02:23;101452.38;;;11.59
29701;BMP280;57917;51.380;-0.176;2023-04-25T18:08:15;101452.94;;;11.66
29701;BMP280;57917;51.380;-0.176;2023-04-25T18:14:43;101453.41;;;11.53
29701;BMP280;57917;51.380;-0.176;2023-04-25T18:20:43;101443.59;;;11.44
29701;BMP280;57917;51.380;-0.176;2023-04-25T18:26:38;101425.50;;;11.35
29701;BMP280;57917;51.380;-0.176;2023-04-25T18:32:29;101448.25;;;11.21
29701;BMP280;57917;51.380;-0.176;2023-04-25T18:38:22;101449.03;;;11.17
29701;BMP280;57917;51.380;-0.176;2023-04-25T18:44:21;101455.56;;;10.94
29701;BMP280;57917;51.380;-0.176;2023-04-25T18:50:09;101438.53;;;10.80
29701;BMP280;57917;51.380;-0.176;2023-04-25T18:56:00;101437.13;;;10.68
29701;BMP280;57917;51.380;-0.176;2023-04-25T19:01:49;101440.72;;;10.52
29701;BMP280;57917;51.380;-0.176;2023-04-25T19:07:52;101430.28;;;10.04
29701;BMP280;57917;51.380;-0.176;2023-04-25T19:13:43;101447.78;;;10.10
29701;BMP280;57917;51.380;-0.176;2023-04-25T19:19:31;101451.66;;;9.75
29701;BMP280;57917;51.380;-0.176;2023-04-25T19:25:18;101464.06;;;9.70
29701;BMP280;57917;51.380;-0.176;2023-04-25T19:31:06;101463.06;;;9.54
29701;BMP280;57917;51.380;-0.176;2023-04-25T19:36:53;101470.44;;;9.52
29701;BMP280;57917;51.380;-0.176;2023-04-25T19:42:41;101488.06;;;9.25
29701;BMP280;57917;51.380;-0.176;2023-04-25T19:48:28;101498.00;;;9.56
29701;BMP280;57917;51.380;-0.176;2023-04-25T19:54:16;101504.13;;;9.19
29701;BMP280;57917;51.380;-0.176;2023-04-25T20:00:10;101521.66;;;9.46
29701;BMP280;57917;51.380;-0.176;2023-04-25T20:06:05;101523.28;;;9.31
29701;BMP280;57917;51.380;-0.176;2023-04-25T20:11:53;101533.66;;;9.54
29701;BMP280;57917;51.380;-0.176;2023-04-25T20:17:43;101548.50;;;9.38
29701;BMP280;57917;51.380;-0.176;2023-04-25T20:31:08;101554.88;;;9.21
29701;BMP280;57917;51.380;-0.176;2023-04-25T20:37:03;101578.22;;;9.12
29701;BMP280;57917;51.380;-0.176;2023-04-25T20:43:22;101578.31;;;9.17
29701;BMP280;57917;51.380;-0.176;2023-04-25T20:49:26;101584.50;;;9.06
29701;BMP280;57917;51.380;-0.176;2023-04-25T20:55:33;101589.13;;;8.99
29701;BMP280;57917;51.380;-0.176;2023-04-25T21:02:28;101596.31;;;8.87
29701;BMP280;57917;51.380;-0.176;2023-04-25T21:09:54;101595.03;;;8.73
29701;BMP280;57917;51.380;-0.176;2023-04-25T21:16:27;101596.16;;;8.77
29701;BMP280;57917;51.380;-0.176;2023-04-25T21:37:50;101594.19;;;8.56
29701;BMP280;57917;51.380;-0.176;2023-04-25T21:44:02;101593.56;;;8.37
29701;BMP280;57917;51.380;-0.176;2023-04-25T21:49:49;101599.63;;;8.10
29701;BMP280;57917;51.380;-0.176;2023-04-25T21:55:42;101598.00;;;8.09
29701;BMP280;57917;51.380;-0.176;2023-04-25T22:01:28;101611.34;;;7.91
29701;BMP280;57917;51.380;-0.176;2023-04-25T22:07:15;101608.91;;;8.01
29701;BMP280;57917;51.380;-0.176;2023-04-25T22:13:02;101611.09;;;8.04
29701;BMP280;57917;51.380;-0.176;2023-04-25T22:18:49;101616.81;;;8.01
29701;BMP280;57917;51.380;-0.176;2023-04-25T22:24:41;101619.53;;;8.29
29701;BMP280;57917;51.380;-0.176;2023-04-25T22:30:29;101624.84;;;8.06
29701;BMP280;57917;51.380;-0.176;2023-04-25T22:36:16;101633.31;;;8.08
29701;BMP280;57917;51.380;-0.176;2023-04-25T22:42:08;101622.19;;;7.94
29701;BMP280;57917;51.380;-0.176;2023-04-25T22:47:55;101630.84;;;7.90
29701;BMP280;57917;51.380;-0.176;2023-04-25T22:53:45;101636.53;;;8.10
29701;BMP280;57917;51.380;-0.176;2023-04-25T22:59:32;101616.94;;;7.83
29701;BMP280;57917;51.380;-0.176;2023-04-25T23:05:29;101627.97;;;7.91
29701;BMP280;57917;51.380;-0.176;2023-04-25T23:11:29;101615.03;;;7.90
29701;BMP280;57917;51.380;-0.176;2023-04-25T23:17:16;101621.91;;;7.91
29701;BMP280;57917;51.380;-0.176;2023-04-25T23:23:04;101623.38;;;7.87
29701;BMP280;57917;51.380;-0.176;2023-04-25T23:28:51;101629.47;;;7.87
29701;BMP280;57917;51.380;-0.176;2023-04-25T23:34:43;101634.50;;;7.89
29701;BMP280;57917;51.380;-0.176;2023-04-25T23:40:30;101635.97;;;7.85
29701;BMP280;57917;51.380;-0.176;2023-04-25T23:46:20;101635.53;;;7.76
29701;BMP280;57917;51.380;-0.176;2023-04-25T23:52:13;101644.81;;;7.55
29701;BMP280;57917;51.380;-0.176;2023-04-25T23:58:00;101637.22;;;7.36
